Flight Track Log - Related Links

Times and Time Zones

All times are in EDT time to prevent confusion due to time zone crossing. See the EJA929 flight status page for this flight to view local times or setup timezone preferences in your user account.

Time Position Orientation Groundspeed Altitude Reporting Facility
EDT Latitude Longitude Course Direction KTS MPH feet Rate Location/Type
Mon 12:37:22 PM 38.1886 -122.2956 90° East 164 189 1,200  Level Oakland Center
Mon 12:38:23 PM 38.1861 -122.3500 267° West 204 235 4,700 3,463 Climbing Oakland Center
Mon 12:39:25 PM 38.2242 -122.4017 313° West 201 231 8,300 3,366 Climbing Oakland Center
Mon 12:40:26 PM 38.2936 -122.4050 358° North 250 288 11,600 2,439 Climbing Oakland Center
Mon 12:41:28 PM 38.3797 -122.3978 North 315 362 13,300 1,561 Climbing Oakland Center
Mon 12:42:00 PM 38.4485 -121.2060 90° East  Level Estimated
Mon 12:42:29 PM 38.4478 -122.3122 45° Northeast 360 414 14,800  Level Oakland Center
Mon 12:43:31 PM 38.4603 -122.1775 83° East 379 436 16,100 1,317 Climbing Oakland Center
Mon 12:44:32 PM 38.4672 -122.0111 87° East 390 449 17,500 1,220 Climbing Oakland Center
Mon 12:45:34 PM 38.4725 -121.8681 87° East 401 461 18,600 1,122 Climbing Oakland Center
Mon 12:46:35 PM 38.4778 -121.7344 87° East 408 470 19,800 1,131 Climbing Oakland Center
Mon 12:47:36 PM 38.4839 -121.5867 87° East 417 480 20,900 1,220 Climbing Oakland Center
Mon 12:48:38 PM 38.4903 -121.4217 87° East 428 493 22,300 1,366 Climbing Oakland Center
Mon 12:49:39 PM 38.4939 -121.2669 88° East 435 501 23,700 1,415 Climbing Oakland Center
Mon 12:50:41 PM 38.5011 -121.1008 87° East 447 514 25,200 1,366 Climbing Oakland Center
Mon 12:51:42 PM 38.5064 -120.9417 88° East 450 518 26,500 1,220 Climbing Oakland Center
Mon 12:52:44 PM 38.5119 -120.7767 87° East 462 532 27,700 1,268 Climbing Oakland Center
Mon 12:53:45 PM 38.5169 -120.6081 88° East 473 544 29,100 1,463 Climbing Oakland Center
Mon 12:54:47 PM 38.5214 -120.4025 88° East 483 556 30,700 1,659 Climbing Oakland Center
Mon 12:55:48 PM 38.5261 -120.2283 88° East 491 565 32,500 1,707 Climbing Oakland Center
Mon 12:56:50 PM 38.5314 -120.0567 88° East 486 559 34,200 1,707 Climbing Oakland Center
Mon 12:57:51 PM 38.5342 -119.8842 89° East 487 560 36,000 1,756 Climbing Oakland Center
Mon 12:58:53 PM 38.5394 -119.6933 88° East 489 563 37,800 1,561 Climbing Oakland Center
Mon 12:59:54 PM 38.5436 -119.5217 88° East 487 560 39,200 1,171 Climbing Oakland Center
Mon 01:00:56 PM 38.5478 -119.3478 88° East 491 565 40,200 878 Climbing Oakland Center
Mon 01:01:57 PM 38.5503 -119.1756 89° East 489 563 41,000 390 Climbing Oakland Center
Mon 01:02:59 PM 38.5544 -118.9944 88° East 509 586 41,000  Level Oakland Center
Mon 01:04:00 PM 38.5569 -118.8075 89° East 523 602 41,000  Level Oakland Center
Mon 01:05:02 PM 38.5600 -118.6150 89° East 540 621 41,000  Level Oakland Center
Mon 01:06:03 PM 38.5625 -118.3833 89° East 547 629 41,000  Level Oakland Center
Mon 01:07:05 PM 38.5644 -118.1864 89° East 554 638 41,000  Level Oakland Center
Mon 01:08:06 PM 38.5675 -118.0139 89° East 552 635 41,000  Level Oakland Center
Mon 01:09:08 PM 38.5858 -117.8169 83° East 555 639 41,000  Level Oakland Center
Mon 01:09:59 PM 38.6025 -117.6208 84° East 555 639 41,000  Level Salt Lake Center
Mon 01:11:00 PM 38.6203 -117.4231 83° East 556 640 41,000  Level Salt Lake Center
Mon 01:12:02 PM 38.6367 -117.2231 84° East 558 642 41,000  Level Salt Lake Center
Mon 01:13:04 PM 38.6542 -117.0228 84° East 561 646 41,000  Level Salt Lake Center
Mon 01:14:05 PM 38.6708 -116.8214 84° East 565 650 41,000  Level Salt Lake Center
Mon 01:15:07 PM 38.6875 -116.6197 84° East 567 652 41,000  Level Salt Lake Center
Mon 01:16:09 PM 38.7039 -116.4192 84° East 564 649 41,000  Level Salt Lake Center
Mon 01:17:10 PM 38.7197 -116.2197 84° East 563 648 41,000  Level Salt Lake Center
Mon 01:18:12 PM 38.7350 -116.0206 84° East 560 644 41,000  Level Salt Lake Center
Mon 01:19:14 PM 38.7522 -115.7828 85° East 558 642 41,000  Level Salt Lake Center
Mon 01:20:15 PM 38.7672 -115.5864 84° East 555 639 41,000  Level Salt Lake Center
Mon 01:21:17 PM 38.7800 -115.3914 85° East 549 632 41,000  Level Salt Lake Center
Mon 01:22:19 PM 38.7942 -115.2097 84° East 554 638 41,000  Level Salt Lake Center
Mon 01:23:21 PM 38.8086 -115.0144 85° East 554 638 41,000  Level Salt Lake Center
Mon 01:24:22 PM 38.8247 -114.7794 85° East 552 635 41,000  Level Salt Lake Center
Mon 01:25:24 PM 38.8361 -114.5831 86° East 553 636 41,000  Level Salt Lake Center
Mon 01:26:26 PM 38.8492 -114.3856 85° East 555 639 41,000  Level Salt Lake Center
Mon 01:27:28 PM 38.8611 -114.1858 86° East 560 644 41,000  Level Salt Lake Center
Mon 01:28:29 PM 38.8719 -113.9878 86° East 557 641 41,000  Level Salt Lake Center
Mon 01:29:31 PM 38.8842 -113.7900 85° East 557 641 41,000  Level Salt Lake Center
Mon 01:30:33 PM 38.8947 -113.5922 86° East 555 639 41,000  Level Salt Lake Center
Mon 01:31:35 PM 38.9078 -113.3533 86° East 558 642 41,000  Level Salt Lake Center
Mon 01:32:37 PM 38.9181 -113.1572 86° East 553 636 41,000  Level Salt Lake Center
Mon 01:33:38 PM 38.9278 -112.9539 86° East 564 649 41,000  Level Salt Lake Center
Mon 01:34:40 PM 38.9372 -112.7547 86° East 561 646 41,000  Level Salt Lake Center
Mon 01:35:42 PM 38.9469 -112.5539 86° East 561 646 41,000  Level Salt Lake Center
Mon 01:36:44 PM 38.9550 -112.3525 87° East 563 648 41,000  Level Salt Lake Center
Mon 01:37:46 PM 38.9653 -112.1514 86° East 565 650 41,000  Level Salt Lake Center
Mon 01:38:48 PM 38.9758 -111.9086 87° East 567 652 41,000  Level Salt Lake Center
Mon 01:39:49 PM 38.9833 -111.7067 87° East 567 652 41,000  Level Salt Lake Center
Mon 01:40:51 PM 38.9911 -111.5044 87° East 566 651 41,000  Level Salt Lake Center
Mon 01:41:53 PM 38.9989 -111.3022 87° East 566 651 41,000  Level Salt Lake Center
Mon 01:42:55 PM 39.0053 -111.0917 88° East 568 654 41,000  Level Salt Lake Center
Mon 01:43:57 PM 39.0111 -110.8967 88° East 570 656 41,000  Level Salt Lake Center
Mon 01:44:59 PM 39.0175 -110.6703 88° East 568 654 41,000  Level Salt Lake Center
Mon 01:46:01 PM 39.0256 -110.4769 87° East 568 654 41,000  Level Salt Lake Center
Mon 01:47:03 PM 39.0314 -110.2500 88° East 570 656 41,000  Level Salt Lake Center
Mon 01:48:05 PM 39.0358 -110.0539 88° East 572 658 41,000  Level Salt Lake Center
Mon 01:49:07 PM 39.0411 -109.8261 88° East 573 659 41,000  Level Salt Lake Center
Mon 01:50:09 PM 39.0456 -109.6325 88° East 570 656 41,000  Level Salt Lake Center
Mon 01:51:11 PM 39.0492 -109.4044 89° East 572 658 41,000  Level Salt Lake Center
Mon 01:52:13 PM 39.0531 -109.2086 88° East 574 661 41,000  Level Salt Lake Center
Mon 01:53:27 PM 39.0558 -108.9425 89° East 576 663 41,000  Level Denver Center
Mon 01:54:29 PM 39.0739 -108.7161 84° East 575 662 41,000  Level Denver Center
Mon 01:55:32 PM 39.1147 -108.5281 74° East 573 659 41,000  Level Denver Center
Mon 01:56:34 PM 39.1600 -108.3078 75° East 573 659 41,000  Level Denver Center
Mon 01:57:36 PM 39.1981 -108.1194 75° East 572 658 41,000  Level Denver Center
Mon 01:58:38 PM 39.2428 -107.8992 75° East 572 658 41,000  Level Denver Center
Mon 01:59:41 PM 39.2806 -107.7097 75° East 572 658 41,000  Level Denver Center
Mon 02:00:43 PM 39.3236 -107.4900 76° East 568 654 41,000  Level Denver Center
Mon 02:01:45 PM 39.3608 -107.3022 76° East 566 651 41,000  Level Denver Center
Mon 02:02:47 PM 39.4033 -107.0828 76° East 563 648 41,000  Level Denver Center
Mon 02:03:49 PM 39.4367 -106.8961 77° East 558 642 41,000  Level Denver Center
Mon 02:04:51 PM 39.4661 -106.6717 80° East 565 650 41,000  Level Denver Center
Mon 02:05:53 PM 39.4883 -106.4831 81° East 566 651 41,000  Level Denver Center
Mon 02:06:55 PM 39.5119 -106.2817 81° East 566 651 41,000  Level Denver Center
Mon 02:07:58 PM 39.5358 -106.0731 81° East 563 648 41,000  Level Denver Center
Mon 02:09:00 PM 39.5589 -105.8711 82° East 570 656 41,000  Level Denver Center
Mon 02:10:02 PM 39.5861 -105.6275 82° East 569 655 41,000  Level Denver Center
Mon 02:11:04 PM 39.6067 -105.4261 82° East 564 649 41,000  Level Denver Center
Mon 02:12:06 PM 39.6281 -105.2242 82° East 565 650 41,000  Level Denver Center
Mon 02:13:08 PM 39.6486 -105.0231 82° East 562 647 41,000  Level Denver Center
Mon 02:14:10 PM 39.6678 -104.8172 83° East 561 646 41,000  Level Denver Center
Mon 02:15:12 PM 39.6925 -104.6014 81° East 571 657 41,000  Level Denver Center
Mon 02:16:14 PM 39.7078 -104.3922 85° East 564 649 41,000  Level Denver Center
Mon 02:17:16 PM 39.7247 -104.1808 84° East 581 669 41,000  Level Denver Center
Mon 02:18:18 PM 39.7403 -103.9744 84° East 576 663 41,000  Level Denver Center
Mon 02:19:20 PM 39.7617 -103.7272 84° East 559 643 41,000  Level Denver Center
Mon 02:20:22 PM 39.7761 -103.5183 85° East 573 659 41,000  Level Denver Center
Mon 02:21:24 PM 39.7933 -103.3103 84° East 580 667 41,000  Level Denver Center
Mon 02:22:26 PM 39.8089 -103.1019 84° East 581 669 41,000  Level Denver Center
Mon 02:23:28 PM 39.8244 -102.8925 84° East 584 672 41,000  Level Denver Center
Mon 02:24:30 PM 39.8403 -102.6494 85° East 582 670 41,000  Level Denver Center
Mon 02:25:32 PM 39.8544 -102.4494 85° East 582 670 41,000  Level Denver Center
Mon 02:26:34 PM 39.8694 -102.2161 85° East 581 669 41,000  Level Denver Center
Mon 02:27:36 PM 39.8825 -102.0161 85° East 581 669 41,000 48 Level Denver Center
Mon 02:28:38 PM 39.8964 -101.7819 86° East 582 670 41,100 339 Climbing Denver Center
Mon 02:29:40 PM 39.9086 -101.5817 85° East 582 670 41,700 629 Climbing Denver Center
Mon 02:30:42 PM 39.9222 -101.3533 85° East 572 658 42,400 629 Climbing Denver Center
Mon 02:31:44 PM 39.9339 -101.1578 85° East 570 656 43,000 290 Climbing Denver Center
Mon 02:32:46 PM 39.9461 -100.9322 86° East 564 649 43,000  Level Denver Center
Mon 02:33:48 PM 39.9564 -100.7353 86° East 568 654 43,000  Level Denver Center
Mon 02:34:50 PM 39.9658 -100.5347 86° East 577 664 43,000  Level Denver Center
Mon 02:35:52 PM 39.9778 -100.3031 86° East 577 664 43,000  Level Denver Center
Mon 02:36:54 PM 39.9881 -100.0781 87° East 582 670 43,000  Level Denver Center
Mon 02:37:56 PM 39.9972 -99.8717 87° East 574 661 43,000  Level Denver Center
Mon 02:38:58 PM 40.0064 -99.6725 86° East 558 642 43,000  Level Denver Center
Mon 02:40:00 PM 40.0153 -99.4706 87° East 559 643 43,000  Level Denver Center
Mon 02:41:02 PM 40.0233 -99.2644 87° East 568 654 43,000  Level Denver Center
Mon 02:42:02 PM 40.0308 -99.0594 87° East 570 656 43,000  Level Minneapolis Center
Mon 02:43:04 PM 40.0406 -98.8083 87° East 577 664 43,000  Level Minneapolis Center
Mon 02:44:05 PM 40.0475 -98.5989 87° East 581 669 43,000  Level Minneapolis Center
Mon 02:45:07 PM 40.0539 -98.3894 88° East 580 667 43,000  Level Minneapolis Center
Mon 02:46:09 PM 40.0611 -98.1797 87° East 581 669 43,000  Level Minneapolis Center
Mon 02:47:11 PM 40.0661 -97.9700 88° East 581 669 43,000  Level Minneapolis Center
Mon 02:48:13 PM 40.0725 -97.7594 88° East 582 670 43,000  Level Minneapolis Center
Mon 02:49:15 PM 40.0786 -97.5072 88° East 582 670 43,000  Level Minneapolis Center
Mon 02:50:17 PM 40.0836 -97.3197 88° East 582 670 43,000  Level Minneapolis Center
Mon 02:51:19 PM 40.0872 -97.1103 89° East 581 669 43,000  Level Minneapolis Center
Mon 02:52:21 PM 40.0925 -96.8597 88° East 578 665 43,000  Level Minneapolis Center
Mon 02:53:23 PM 40.0956 -96.6500 89° East 580 667 43,000  Level Minneapolis Center
Mon 02:54:25 PM 40.1000 -96.4375 88° East 585 673 43,000  Level Minneapolis Center
Mon 02:55:27 PM 40.1025 -96.2272 89° East 583 671 43,000  Level Minneapolis Center
Mon 02:56:29 PM 40.1056 -96.0139 89° East 588 677 43,000  Level Minneapolis Center
Mon 02:57:31 PM 40.1069 -95.7981 89° East 593 682 43,000  Level Minneapolis Center
Mon 02:58:33 PM 40.1106 -95.5428 89° East 593 682 43,000  Level Minneapolis Center
Mon 02:59:35 PM 40.1111 -95.3289 90° East 592 681 43,000  Level Minneapolis Center
Mon 03:00:37 PM 40.1122 -95.1125 90° East 594 684 43,000  Level Minneapolis Center
Mon 03:01:38 PM 40.1125 -94.8981 90° East 594 684 43,000  Level Minneapolis Center
Mon 03:02:40 PM 40.1131 -94.6814 90° East 595 685 43,000  Level Minneapolis Center
Mon 03:03:42 PM 40.1139 -94.4656 90° East 601 692 43,000  Level Minneapolis Center
Mon 03:04:44 PM 40.1133 -94.2067 90° East 601 692 43,000  Level Minneapolis Center
Mon 03:05:46 PM 40.1117 -93.9919 91° East 598 688 43,000  Level Minneapolis Center
Mon 03:06:48 PM 40.1106 -93.7764 90° East 600 690 43,000  Level Minneapolis Center
Mon 03:07:50 PM 40.1083 -93.5603 91° East 600 690 43,000  Level Minneapolis Center
Mon 03:09:07 PM 40.1044 -93.2561 91° East 603 694 43,000  Level Kansas City Center
Mon 03:10:09 PM 40.0997 -93.0247 91° East 601 692 43,000  Level Kansas City Center
Mon 03:11:11 PM 40.0961 -92.8142 91° East 603 694 43,000  Level Kansas City Center
Mon 03:12:13 PM 40.0911 -92.5683 91° East 606 697 43,000  Level Kansas City Center
Mon 03:13:15 PM 40.0875 -92.3583 91° East 604 695 43,000  Level Kansas City Center
Mon 03:14:17 PM 40.0853 -92.1400 91° East 606 697 43,000  Level Kansas City Center
Mon 03:15:19 PM 40.0794 -91.9236 92° East 605 696 43,000  Level Kansas City Center
Mon 03:16:21 PM 40.0733 -91.7069 92° East 605 696 43,000  Level Kansas City Center
Mon 03:17:23 PM 40.0731 -91.4483 90° East 601 692 43,000  Level Kansas City Center
Mon 03:18:25 PM 40.0864 -91.2314 85° East 605 696 43,000  Level Kansas City Center
Mon 03:19:27 PM 40.0994 -91.0158 85° East 603 694 43,000  Level Kansas City Center
Mon 03:20:29 PM 40.1119 -90.7856 86° East 601 692 43,000  Level Kansas City Center
Mon 03:21:31 PM 40.1242 -90.5706 86° East 598 688 43,000  Level Kansas City Center
Mon 03:22:33 PM 40.1364 -90.3558 86° East 596 686 43,000  Level Kansas City Center
Mon 03:23:35 PM 40.1486 -90.0956 86° East 600 690 43,000  Level Kansas City Center
Mon 03:24:37 PM 40.1594 -89.8803 86° East 601 692 43,000  Level Kansas City Center
Mon 03:25:39 PM 40.1692 -89.6669 87° East 597 687 43,000 -581 Level Kansas City Center
Mon 03:26:41 PM 40.1789 -89.4564 86° East 591 680 41,800 -1,500 Descending Kansas City Center
Mon 03:27:43 PM 40.1875 -89.2467 87° East 585 673 39,900 -1,984 Descending Kansas City Center
Mon 03:28:45 PM 40.1989 -88.9850 87° East 599 689 37,700 -1,403 Descending Kansas City Center
Mon 03:29:47 PM 40.2067 -88.7600 87° East 615 708 37,000 -336 Descending Kansas City Center
Mon 03:30:50 PM 40.2150 -88.5439 87° East 606 697 37,000 -768 Level Kansas City Center
Mon 03:31:52 PM 40.2253 -88.3317 86° East 591 680 35,400 -968 Descending Kansas City Center
Mon 03:32:54 PM 40.2306 -88.1250 88° East 579 666 35,000 -194 Descending Kansas City Center
Mon 03:33:56 PM 40.2378 -87.9339 87° East 544 626 35,000  Level Kansas City Center
Mon 03:34:41 PM 40.2397 -87.7850 89° East 518 596 35,000  Level Indianapolis Center
Mon 03:35:12 PM 40.2436 -87.6942 87° East 510 587 35,000  Level Chicago Center
Mon 03:36:15 PM 40.2497 -87.4797 88° East 500 575 35,000 -48 Level Chicago Center
Mon 03:37:17 PM 40.2522 -87.3142 89° East 498 573 34,900 -677 Descending Chicago Center
Mon 03:38:19 PM 40.2581 -87.1219 88° East 524 603 33,600 -919 Descending Chicago Center
Mon 03:39:21 PM 40.2625 -86.9172 88° East 557 641 33,000 -290 Descending Chicago Center
Mon 03:40:23 PM 40.2672 -86.7094 88° East 567 652 33,000  Level Chicago Center
Mon 03:41:25 PM 40.2719 -86.4608 88° East 568 654 33,000  Level Chicago Center
Mon 03:42:27 PM 40.2750 -86.2539 89° East 567 652 33,000 -48 Level Chicago Center
Mon 03:43:29 PM 40.2764 -86.0444 89° East 572 658 32,900 -1,065 Descending Chicago Center
Mon 03:44:31 PM 40.2794 -85.8386 89° East 569 655 30,800 -2,258 Descending Chicago Center
Mon 03:45:02 PM 40.2803 -85.7197 89° East 556 640 29,400 -2,129 Descending Indianapolis Center
Mon 03:46:04 PM 40.2850 -85.5203 88° East 550 633 27,500 -1,161 Descending Indianapolis Center
Mon 03:47:06 PM 40.2878 -85.3253 89° East 539 620 27,000 -242 Descending Indianapolis Center
Mon 03:48:08 PM 40.2886 -85.1308 90° East 535 616 27,000  Level Indianapolis Center
Mon 03:49:10 PM 40.2883 -84.9350 90° East 539 620 27,000 -242 Level Indianapolis Center
Mon 03:50:12 PM 40.2903 -84.7369 89° East 539 620 26,500 -774 Descending Indianapolis Center
Mon 03:51:14 PM 40.2889 -84.5442 90° East 530 610 25,400 -1,210 Descending Indianapolis Center
Mon 03:52:16 PM 40.2883 -84.3214 90° East 510 587 24,000 -1,839 Descending Indianapolis Center
Mon 03:53:18 PM 40.2892 -84.1428 90° East 492 566 21,600 -2,371 Descending Indianapolis Center
Mon 03:54:20 PM 40.3017 -83.9711 84° East 474 545 19,100 -2,323 Descending Indianapolis Center
Mon 03:55:22 PM 40.3344 -83.8108 75° East 455 524 16,800 -2,429 Descending Indianapolis Center
Mon 03:55:44 PM 40.3481 -83.7347 77° East 448 516 15,700 -2,226 Descending Indianapolis Center
Mon 03:56:24 PM 40.3653 -83.6536 74° East 445 512 14,500 -2,712 Descending Indianapolis Center
Mon 03:56:57 PM 40.3850 -83.5542 75° East 395 455 12,400 -2,903 Descending Indianapolis Center
Mon 03:57:26 PM 40.3925 -83.5103 77° East 411 473 11,500 -1,377 Descending Indianapolis Center
Mon 03:57:58 PM 40.3742 -83.4314 107° East 346 398 11,000 -677 Descending Indianapolis Center
Mon 03:58:28 PM 40.3525 -83.4119 146° Southeast 340 391 10,800 -1,315 Descending Indianapolis Center
Mon 03:59:11 PM 40.2856 -83.3697 154° Southeast 282 325 9,400 -1,810 Descending Indianapolis Center
Mon 03:59:31 PM 40.2650 -83.3556 152° Southeast 293 337 8,900 -1,770 Descending Indianapolis Center
Mon 04:00:12 PM 40.2122 -83.3247 156° South 283 326 7,600 -1,742 Descending Indianapolis Center
Mon 04:00:33 PM 40.1944 -83.3108 149° Southeast 284 327 7,100 -1,636 Descending Indianapolis Center
Mon 04:01:07 PM 40.1531 -83.2847 154° Southeast 271 312 6,100 -1,355 Descending Indianapolis Center
Mon 04:01:35 PM 40.1272 -83.2658 151° Southeast 276 318 5,700 -1,433 Descending Indianapolis Center
Mon 04:02:14 PM 40.0803 -83.2342 153° Southeast 262 302 4,500 -1,548 Descending Indianapolis Center
Mon 04:02:37 PM 40.0628 -83.2206 149° Southeast 269 310 4,100 -492 Descending Indianapolis Center
Mon 04:03:15 PM 40.0344 -83.1639 123° Southeast 232 267 4,000 -97 Descending Indianapolis Center
Mon 04:03:39 PM 40.0269 -83.1478 121° Southeast 247 284 4,000 -295 Level Indianapolis Center
Mon 04:04:16 PM 40.0136 -83.0975 109° East 195 224 3,700 -581 Descending Indianapolis Center
Mon 04:04:41 PM 40.0125 -83.0792 95° East 219 252 3,400 -982 Descending Indianapolis Center
Mon 04:05:11 PM 40.0092 -83.0339 95° East 187 215 2,800 -1,161 Descending Indianapolis Center
Mon 04:05:43 PM 40.0075 -82.9989 94° East 196 226 2,200 -885 Descending Indianapolis Center
Mon 04:06:12 PM 40.0067 -82.9736 92° East 170 196 1,900 -677 Descending Indianapolis Center
Mon 04:06:45 PM 40.0047 -82.9444 95° East 173 199 1,500 -700 Descending Indianapolis Center
Mon 04:07:12 PM 40.0047 -82.9267 90° East 124 143 1,200 -290 Descending Indianapolis Center
Mon 04:07:47 PM 40.0028 -82.9011 96° East 160 184 1,200  Level Indianapolis Center
Mon 04:09:00 PM 39.9969 -82.8922 123° Southeast  Level Estimated

Login

Don't have an account? Register now (free) for customized features, flight alerts, and more!